Astolfo Dutra, Brazil
Current Conditions -  °F | °C
As of 9:00 AM on Friday 19 Dec 2014 (Local Time) from SBBQ Reporting Station
Broken Clouds Broken Clouds  
Wind Chill: 68°   Ceiling: 7000
Heat Index: 68°   Visibility: 6mi
Dew Point: 63°   Wind: 2mph
Humidity: 83%   Direction: 250°WSW
Pressure: 30.06"   Gusts: NA
Location:  21.32°S, 42.86°W
Report Text: SBBQ 191100Z 25002KT 9999 FEW008 BKN070 20/17 Q1018
Loading
Personal Weather Stations






























Interactive Weather Map New forecast layout! Learn more

10-Day Weather Forecast

Advertisements
Track Severe Weather on mobile